createdAt,value
2018-04-08T00:03:53.385Z,8.77
2018-04-08T00:08:55.875Z,8.00
2018-04-08T00:13:58.384Z,10.17
2018-04-08T00:19:00.970Z,11.63
2018-04-08T00:24:03.493Z,9.30
2018-04-08T00:29:05.966Z,8.73
2018-04-08T00:34:08.499Z,8.20
2018-04-08T00:39:11.083Z,8.63
2018-04-08T00:44:13.581Z,8.47
2018-04-08T00:49:16.117Z,7.50
2018-04-08T00:54:30.595Z,6.70
2018-04-08T00:59:33.068Z,6.57
2018-04-08T01:04:35.614Z,6.73
2018-04-08T01:09:38.166Z,8.23
2018-04-08T01:14:40.649Z,6.80
2018-04-08T01:19:43.206Z,8.70
2018-04-08T01:24:45.705Z,9.30
2018-04-08T01:29:48.168Z,8.20
2018-04-08T01:34:50.623Z,8.90
2018-04-08T01:39:53.068Z,8.83
2018-04-08T01:44:55.622Z,7.80
2018-04-08T01:49:58.118Z,8.23
2018-04-08T01:55:00.628Z,8.23
2018-04-08T02:00:03.189Z,8.17
2018-04-08T02:05:05.682Z,8.53
2018-04-08T02:10:08.332Z,6.90
2018-04-08T02:15:10.945Z,8.07
2018-04-08T02:20:13.736Z,8.10
2018-04-08T02:25:16.361Z,6.97
2018-04-08T02:30:18.825Z,7.93
2018-04-08T02:35:21.303Z,8.40
2018-04-08T02:40:23.846Z,8.80
2018-04-08T02:45:26.308Z,10.47
2018-04-08T02:50:28.755Z,8.57
2018-04-08T02:55:31.265Z,7.73
2018-04-08T03:00:33.756Z,8.37
2018-04-08T03:05:36.302Z,8.80
2018-04-08T03:10:38.808Z,8.43
2018-04-08T03:15:41.294Z,8.27
2018-04-08T03:20:43.784Z,9.10
2018-04-08T03:25:46.281Z,9.17
2018-04-08T03:30:48.754Z,8.00
2018-04-08T03:35:51.217Z,8.47
2018-04-08T03:40:53.682Z,9.20
2018-04-08T03:45:56.158Z,10.90
2018-04-08T03:50:58.636Z,8.07
2018-04-08T03:56:01.078Z,7.87
2018-04-08T04:01:03.548Z,11.17
2018-04-08T04:06:06.026Z,9.50
2018-04-08T04:11:08.545Z,8.93
2018-04-08T04:16:11.062Z,11.10
2018-04-08T04:21:25.301Z,10.50
2018-04-08T04:26:31.627Z,10.43
2018-04-08T04:31:34.135Z,11.10
2018-04-08T04:36:36.633Z,10.27
2018-04-08T04:41:39.628Z,12.47
2018-04-08T04:46:42.472Z,10.80
2018-04-08T04:51:44.975Z,10.30
2018-04-08T04:56:47.597Z,8.97
2018-04-08T05:01:50.092Z,11.00
2018-04-08T05:06:52.716Z,11.70
2018-04-08T05:11:55.213Z,9.97
2018-04-08T05:16:57.667Z,9.43
2018-04-08T05:22:00.146Z,10.60
2018-04-08T05:27:03.267Z,8.33
2018-04-08T05:32:06.416Z,9.87
2018-04-08T05:37:08.970Z,8.43
2018-04-08T05:42:11.715Z,9.40
2018-04-08T05:47:15.189Z,9.33
2018-04-08T05:52:18.017Z,8.17
2018-04-08T05:57:20.622Z,9.70
2018-04-08T06:02:23.123Z,9.50
2018-04-08T06:07:25.624Z,9.93
2018-04-08T06:12:28.104Z,8.27
2018-04-08T06:17:30.607Z,9.30
2018-04-08T06:22:33.139Z,10.40
2018-04-08T06:27:35.616Z,10.33
2018-04-08T06:32:38.113Z,12.13
2018-04-08T06:37:40.564Z,10.20
2018-04-08T06:42:43.041Z,10.67
2018-04-08T06:47:45.615Z,9.30
2018-04-08T06:52:48.130Z,8.93
2018-04-08T06:57:50.665Z,8.60
2018-04-08T07:02:53.225Z,10.60
2018-04-08T07:07:55.839Z,9.90
2018-04-08T07:12:58.330Z,8.57
2018-04-08T07:18:00.823Z,10.57
2018-04-08T07:23:03.308Z,8.87
2018-04-08T07:28:06.518Z,8.90
2018-04-08T07:33:08.995Z,8.27
2018-04-08T07:38:14.096Z,8.73
2018-04-08T07:43:16.601Z,8.20
2018-04-08T07:48:19.104Z,8.17
2018-04-08T07:53:21.662Z,9.30
2018-04-08T07:58:24.148Z,9.47
2018-04-08T08:03:26.657Z,8.70
2018-04-08T08:08:29.244Z,7.50
2018-04-08T08:13:31.742Z,7.00
2018-04-08T08:18:34.229Z,7.57
2018-04-08T08:23:36.804Z,9.03
2018-04-08T08:28:39.309Z,7.73
2018-04-08T08:33:41.779Z,7.00
2018-04-08T08:38:45.263Z,7.13
2018-04-08T08:43:47.728Z,7.70
2018-04-08T08:48:50.288Z,7.00
2018-04-08T08:53:52.819Z,8.40
2018-04-08T08:58:55.375Z,8.10
2018-04-08T09:03:57.891Z,7.50
2018-04-08T09:09:00.657Z,7.20
2018-04-08T09:14:03.097Z,8.00
2018-04-08T09:19:18.467Z,7.13
2018-04-08T09:24:24.329Z,6.77
2018-04-08T09:29:26.783Z,7.10
2018-04-08T09:34:29.258Z,6.33
2018-04-08T09:39:31.752Z,5.33
2018-04-08T09:44:34.244Z,7.17
2018-04-08T09:49:36.764Z,6.60
2018-04-08T09:54:39.232Z,7.63
2018-04-08T09:59:41.709Z,5.60
2018-04-08T10:04:44.253Z,6.00
2018-04-08T10:09:46.741Z,6.40
2018-04-08T10:14:50.112Z,6.03
2018-04-08T10:19:52.630Z,5.60
2018-04-08T10:24:55.154Z,5.47
2018-04-08T10:29:57.619Z,5.67
2018-04-08T10:35:00.075Z,6.30
2018-04-08T10:40:02.943Z,5.70
2018-04-08T10:45:05.442Z,5.60
2018-04-08T10:50:07.910Z,5.53
2018-04-08T10:55:10.387Z,4.93
2018-04-08T11:00:12.930Z,5.33
2018-04-08T11:05:15.711Z,6.03
2018-04-08T11:10:19.695Z,5.33
2018-04-08T11:15:26.181Z,6.00
2018-04-08T11:20:28.870Z,6.57
2018-04-08T11:25:31.346Z,6.33
2018-04-08T11:30:33.823Z,6.07
2018-04-08T11:35:36.328Z,6.40
2018-04-08T11:40:39.434Z,6.00
2018-04-08T11:45:41.921Z,5.87
2018-04-08T11:50:44.445Z,5.80
2018-04-08T11:55:47.036Z,5.70
2018-04-08T12:00:49.574Z,5.63
2018-04-08T12:05:52.219Z,6.07
2018-04-08T12:10:54.693Z,6.40
2018-04-08T12:15:57.185Z,6.63
2018-04-08T12:20:59.679Z,5.97
2018-04-08T12:26:02.958Z,5.33
2018-04-08T12:31:05.448Z,6.63
2018-04-08T12:36:07.924Z,5.63
2018-04-08T12:41:10.383Z,5.67
2018-04-08T12:46:12.838Z,6.73
2018-04-08T12:51:15.325Z,5.90
2018-04-08T12:56:18.548Z,5.70
2018-04-08T13:01:21.138Z,6.33
2018-04-08T13:06:23.618Z,5.60
2018-04-08T13:11:26.164Z,5.77
2018-04-08T13:16:28.882Z,7.00
2018-04-08T13:21:31.406Z,6.30
2018-04-08T13:26:34.026Z,6.23
2018-04-08T13:31:36.698Z,7.20
2018-04-08T13:36:39.156Z,6.40
2018-04-08T13:41:41.685Z,6.67
2018-04-08T13:46:44.232Z,6.17
2018-04-08T13:51:46.966Z,6.67
2018-04-08T13:56:50.403Z,7.93
2018-04-08T14:01:52.930Z,7.60
2018-04-08T14:06:55.411Z,7.47
2018-04-08T14:11:58.007Z,6.60
2018-04-08T14:17:00.471Z,9.07
2018-04-08T14:22:02.988Z,8.77
2018-04-08T14:27:05.445Z,9.23
2018-04-08T14:32:07.916Z,9.73
2018-04-08T14:37:10.399Z,10.60
2018-04-08T14:42:12.897Z,10.37
2018-04-08T14:47:15.485Z,12.93
2018-04-08T14:52:18.036Z,12.33
2018-04-08T14:57:20.599Z,13.23
2018-04-08T15:02:23.090Z,12.10
2018-04-08T15:07:25.566Z,13.00
2018-04-08T15:12:28.202Z,11.67
2018-04-08T15:17:30.677Z,12.23
2018-04-08T15:22:33.209Z,12.47
2018-04-08T15:27:36.717Z,11.77
2018-04-08T15:32:39.203Z,12.63
2018-04-08T15:37:41.724Z,13.03
2018-04-08T15:42:45.082Z,14.20
2018-04-08T15:47:47.634Z,14.07
2018-04-08T15:52:50.190Z,12.13
2018-04-08T15:57:52.819Z,14.53
2018-04-08T16:02:55.333Z,14.30
2018-04-08T16:07:57.803Z,14.07
2018-04-08T16:13:00.299Z,15.13
2018-04-08T16:18:02.792Z,14.20
2018-04-08T16:23:05.319Z,14.43
2018-04-08T16:28:07.807Z,14.10
2018-04-08T16:33:10.296Z,14.93
2018-04-08T16:38:12.778Z,16.30
2018-04-08T16:43:15.309Z,13.93
2018-04-08T16:48:17.910Z,13.67
2018-04-08T16:53:20.418Z,14.73
2018-04-08T16:58:22.915Z,15.20
2018-04-08T17:03:25.830Z,14.40
2018-04-08T17:08:28.312Z,13.20
2018-04-08T17:13:30.795Z,14.50
2018-04-08T17:18:34.216Z,14.93
2018-04-08T17:23:36.744Z,13.73
2018-04-08T17:28:39.229Z,14.57
2018-04-08T17:33:41.764Z,16.60
2018-04-08T17:38:45.734Z,14.60
2018-04-08T17:43:51.296Z,14.17
2018-04-08T17:48:53.924Z,14.23
2018-04-08T17:53:57.443Z,14.20
2018-04-08T17:58:59.956Z,12.70
2018-04-08T18:04:10.851Z,13.77
2018-04-08T18:09:26.330Z,13.73
2018-04-08T18:19:51.846Z,13.80
2018-04-08T18:24:55.379Z,15.40
2018-04-08T18:30:00.056Z,13.57
2018-04-08T18:35:06.584Z,13.83
2018-04-08T18:40:09.069Z,12.67
2018-04-08T18:45:12.421Z,14.53
2018-04-08T18:50:14.994Z,16.23
2018-04-08T18:55:17.575Z,14.17
2018-04-08T19:00:20.144Z,16.23
2018-04-08T19:05:22.801Z,13.40
2018-04-08T19:10:25.323Z,15.80
2018-04-08T19:15:27.852Z,16.30
2018-04-08T19:20:31.523Z,21.00
2018-04-08T19:25:39.665Z,19.73
2018-04-08T19:30:43.412Z,16.73
2018-04-08T19:35:48.335Z,18.90
2018-04-08T19:40:51.325Z,17.80
2018-04-08T19:45:57.844Z,17.87
2018-04-08T19:51:00.348Z,13.97
2018-04-08T19:56:02.821Z,17.27
2018-04-08T20:01:05.292Z,16.33
2018-04-08T20:06:07.792Z,15.10
2018-04-08T20:11:10.887Z,17.97
2018-04-08T20:16:13.364Z,18.83
2018-04-08T20:21:15.861Z,17.53
2018-04-08T20:26:28.224Z,19.30
2018-04-08T20:31:30.742Z,19.97
2018-04-08T20:36:33.527Z,19.83
2018-04-08T20:41:36.004Z,22.73
2018-04-08T20:46:40.289Z,22.97
2018-04-08T20:51:42.764Z,24.40
2018-04-08T20:57:10.639Z,24.97
2018-04-08T21:02:13.148Z,21.93
2018-04-08T21:07:15.683Z,22.43
2018-04-08T21:12:18.291Z,24.70
2018-04-08T21:17:20.827Z,27.67
2018-04-08T21:22:23.433Z,23.30
2018-04-08T21:27:25.964Z,22.60
2018-04-08T21:32:28.440Z,24.20
2018-04-08T21:37:30.919Z,23.80
2018-04-08T21:42:33.420Z,23.97
2018-04-08T21:47:36.018Z,23.97
2018-04-08T21:52:38.503Z,24.27
2018-04-08T21:57:40.971Z,22.60
2018-04-08T22:02:43.431Z,21.10
2018-04-08T22:07:45.983Z,24.97
2018-04-08T22:12:48.501Z,23.80
2018-04-08T22:17:51.253Z,22.50
2018-04-08T22:22:53.885Z,22.40
2018-04-08T22:27:56.358Z,25.57
2018-04-08T22:33:02.339Z,24.83
2018-04-08T22:38:05.026Z,23.13
2018-04-08T22:43:07.546Z,22.67
2018-04-08T22:48:10.065Z,24.13
2018-04-08T22:53:12.540Z,25.60
2018-04-08T22:58:15.065Z,26.17
2018-04-08T23:03:17.654Z,24.93
2018-04-08T23:08:20.240Z,24.80
2018-04-08T23:13:22.746Z,23.37
2018-04-08T23:18:25.230Z,26.03
2018-04-08T23:23:27.700Z,23.27
2018-04-08T23:28:30.186Z,25.30
2018-04-08T23:33:32.683Z,27.80
2018-04-08T23:38:35.155Z,27.10
2018-04-08T23:43:37.661Z,27.40
2018-04-08T23:48:40.114Z,30.63
2018-04-08T23:53:42.588Z,26.33
2018-04-08T23:58:45.458Z,29.23
